Warren, PA

10:54 PM EST on January 26, 2015 (GMT -0500)
Bradford Regional | Change Station
CLOSE
Current Station
Airport
Location: Bradford,
Elevation: 2142 ft
Nearby Weather Stations
Active Advisory: Winter Weather Statement Active Notice: Public Information Statement

Elev 2142 ft 41.80 °N, 78.64 °W | Updated 6 minutes ago

Overcast
Overcast
16 °F
Feels Like 9 °F
N
5
Wind Variable Wind from ENE

Today
High -- | Low -- °F
--% Chance of Precip.
Yesterday
High -- | Low -- °F
Precip. -- in
7:34 AM 5:23 PM
Waxing Crescent, 50% visible
Pressure 29.75 in
Visibility 1.8 miles
Clouds Overcast 3000 ft
Windchill 9 °F
Dew Point 9 °F
Humidity 73%
Rainfall 0.12 in
Snow Depth Not available.
UV 0 out of 12
Pollen .10 out of 12
Air Quality Not available.
Flu Activity Not available.
SPECI KBFD 270348Z AUTO 06004KT 1 3/4SM -SN OVC030 M09/M13 A2975 RMK AO2 P0001

More Conditions Fewer Conditions

Pressure 29.75 in
Visibility 1.8 miles
Clouds Overcast 3000 ft
Windchill 9 °F
Dew Point 9 °F
Humidity 73%
Rainfall 0.12 in
Snow Depth Not available.
UV 0 out of 12
Pollen .10 out of 12
Air Quality Not available.
Flu Activity Not available.
SPECI KBFD 270348Z AUTO 06004KT 1 3/4SM -SN OVC030 M09/M13 A2975 RMK AO2 P0001

More Conditions Fewer Conditions

Nowcast | as of 8:58 PM EST on January 26, 2015

Bands of snow...some heavy...will be across much of the region through 11 PM. The heaviest snow will be mainly west of a LaPorte...Harrisburg...Gettysburg line. The combination of cold temperatures and the heavy rate of snow accumulation will likely result in poor travel conditions. Persons traveling this evening should allow extra travel time and use caution.

×

10-Day Weather Forecast

Almanac

Astronomy

Jan. 26, 2015 Rise Set
Actual Time
Civil Twilight
Nautical Twilight
Astronomical Twilight
Moon
Length of Visible Light
Length of Day
Tomorrow will be .
, % of the Moon is Illuminated

Today's Extremes

State Highs State Lows

Community

WunderPhotos

Upload Photos

1,790,504 photos uploaded!

WunderBlogs® & News

Nearby

Air Quality

  Air Quality AQ Index Pollutant
Not available.

Snow Depth

Station Depth Elevation

Earthquake Activity

City Distance Mag. Time & Date
Minimum magnitude displayed is 2.5.

Coastal Water Temperatures

Place Temperature

Nearby Weather Stations